Kaldármelar Airport

Jump to: basic info | weather | comments

Related pages: nearby airports | nearby navaids | notams | map

Basic information (top)

Codes: BIKA
Location: lon 64.778900, lat -22.256901, elev 160 ft / 49 m msl
Status: small_airport

Weather (top)

Current conditions for Reykjavik Airport 40nm (74km) SSE (rec'd 2014/04/23 16:00Z):

BIRK 231600Z 07015KT CAVOK 12/01 Q1012

Airport forecast for Reykjavik Airport 40nm (74km) SSE (rec'd 2014/04/23 15:55Z):

TAF BIRK 231347Z 2315/2415 09015KT CAVOK 
      BECMG 2317/2319 9999 RADZ BR SCT025 OVC040 
      BECMG 2409/2412 SCT050 
      BECMG 2412/2415 15010KT

Latest comments (top)

No comments yet for Kaldármelar Airport

More... (top)

See also NOTAMs and nearby airports and navaids, or visit the Kaldármelar Airport page at the main OurAirports website..